TimeMST,TemperatureF,Dew PointF,Humidity,Sea Level PressureIn,VisibilityMPH,Wind Direction,Wind SpeedMPH,Gust SpeedMPH,PrecipitationIn,Events,Conditions,WindDirDegrees,DateUTC
12:14 AM,12.2,10.4,92,30.12,2.5,Calm,Calm,-,N/A,,Overcast,0,2013-12-23 07:14:00
12:22 AM,12.2,8.6,85,30.11,6.0,Calm,Calm,-,N/A,,Overcast,0,2013-12-23 07:22:00
12:53 AM,12.0,9.0,88,30.29,10.0,Calm,Calm,-,N/A,,Overcast,0,2013-12-23 07:53:00
1:53 AM,12.9,9.0,84,30.29,3.0,South,5.8,-,N/A,,Overcast,190,2013-12-23 08:53:00
2:53 AM,14.0,10.9,88,30.28,7.0,SSW,9.2,-,N/A,,Overcast,210,2013-12-23 09:53:00
3:53 AM,16.0,12.0,84,30.27,10.0,SW,11.5,-,0.00,,Overcast,230,2013-12-23 10:53:00
4:53 AM,17.1,12.9,84,30.28,10.0,SW,10.4,-,0.00,,Overcast,220,2013-12-23 11:53:00
5:53 AM,19.0,12.0,74,30.33,10.0,Variable,4.6,-,N/A,,Overcast,0,2013-12-23 12:53:00
6:53 AM,15.1,10.9,84,30.38,10.0,SSW,11.5,-,N/A,,Mostly Cloudy,210,2013-12-23 13:53:00
7:22 AM,15.8,10.4,79,30.17,10.0,SW,10.4,-,N/A,,Overcast,220,2013-12-23 14:22:00
7:49 AM,12.2,8.6,85,30.17,10.0,WSW,8.1,-,N/A,,Scattered Clouds,240,2013-12-23 14:49:00
7:53 AM,12.0,9.0,88,30.42,10.0,SW,8.1,-,N/A,,Scattered Clouds,230,2013-12-23 14:53:00
8:53 AM,16.0,10.9,81,30.40,10.0,SW,8.1,-,N/A,,Clear,230,2013-12-23 15:53:00
9:53 AM,21.0,15.1,78,30.39,10.0,North,-9999.0,-,N/A,,Clear,0,2013-12-23 16:53:00
10:53 AM,24.1,16.0,71,30.37,10.0,SSW,9.2,-,N/A,,Clear,210,2013-12-23 17:53:00
11:53 AM,28.0,19.9,72,30.31,10.0,SSW,9.2,-,N/A,,Overcast,210,2013-12-23 18:53:00
12:53 PM,28.0,19.9,72,30.30,10.0,South,10.4,-,N/A,,Overcast,190,2013-12-23 19:53:00
1:28 PM,37.4,24.8,60,30.10,10.0,West,12.7,23.0,N/A,,Overcast,280,2013-12-23 20:28:00
1:53 PM,39.0,25.0,57,30.23,10.0,West,16.1,-,N/A,,Mostly Cloudy,260,2013-12-23 20:53:00
2:53 PM,37.9,25.0,60,30.23,10.0,West,24.2,31.1,N/A,,Partly Cloudy,280,2013-12-23 21:53:00
3:53 PM,37.0,24.1,59,30.23,10.0,West,18.4,-,N/A,,Clear,260,2013-12-23 22:53:00
4:53 PM,35.1,21.9,59,30.23,10.0,West,17.3,25.3,N/A,,Partly Cloudy,260,2013-12-23 23:53:00
5:53 PM,33.1,21.9,64,30.23,10.0,SSW,10.4,-,N/A,,Mostly Cloudy,210,2013-12-24 00:53:00
6:53 PM,35.1,21.9,59,30.23,10.0,West,17.3,-,N/A,,Partly Cloudy,260,2013-12-24 01:53:00
7:53 PM,36.0,19.9,52,30.24,10.0,WSW,11.5,20.7,N/A,,Clear,250,2013-12-24 02:53:00
8:53 PM,37.0,21.0,52,30.17,10.0,West,23.0,31.1,N/A,,Clear,260,2013-12-24 03:53:00
9:53 PM,37.0,21.9,54,30.14,10.0,WSW,21.9,29.9,N/A,,Clear,250,2013-12-24 04:53:00
10:53 PM,37.9,23.0,55,30.13,10.0,SSW,15.0,-,N/A,,Scattered Clouds,200,2013-12-24 05:53:00
11:00 PM,37.4,23.0,56,30.06,10.0,SW,15.0,24.2,N/A,,Scattered Clouds,220,2013-12-24 06:00:00
11:53 PM,37.9,23.0,55,30.06,10.0,WSW,28.8,33.4,N/A,,Clear,240,2013-12-24 06:53:00